Time;durP1;ratioP1;P1;durP2;ratioP2;P2;SDS_P1;SDS_P2;PMS_P1;PMS_P2;Temp;Humidity;BMP_temperature;BMP_pressure;BME280_temperature;BME280_humidity;BME280_pressure;Samples;Min_cycle;Max_cycle;Signal;HPM_P1;HPM_P2
2022/04/30 00:00:32;;;;;;;17.17;10.65;;;;;;;22.30;50.10;99442.53;1638558;87;25794;-87
2022/04/30 00:03:00;;;;;;;17.57;11.53;;;;;;;22.29;50.13;99440.11;1651624;86;25709;-88
2022/04/30 00:05:32;;;;;;;17.00;10.68;;;;;;;22.30;50.12;99437.53;1638663;87;26012;-87
2022/04/30 00:08:00;;;;;;;15.83;11.35;;;;;;;22.29;50.10;99435.92;1651416;86;25686;-87
2022/04/30 00:10:26;;;;;;;18.77;11.60;;;;;;;22.27;50.14;99434.09;1638637;86;27390;-87
2022/04/30 00:12:53;;;;;;;18.57;11.88;;;;;;;22.25;50.16;99433.06;1651495;86;25627;-87
2022/04/30 00:15:20;;;;;;;16.10;11.15;;;;;;;22.27;50.13;99432.11;1651571;86;25750;-87
2022/04/30 00:17:46;;;;;;;18.32;11.38;;;;;;;22.27;50.14;99432.69;1651328;86;26209;-86
2022/04/30 00:20:13;;;;;;;17.60;11.40;;;;;;;22.26;50.12;99427.72;1651641;86;25699;-87
2022/04/30 00:22:39;;;;;;;17.52;11.55;;;;;;;22.25;50.17;99434.46;1651828;85;27921;-87
2022/04/30 00:25:07;;;;;;;14.95;11.12;;;;;;;22.25;50.15;99430.88;1651610;86;25822;-87
2022/04/30 00:27:34;;;;;;;17.87;11.22;;;;;;;22.24;50.15;99427.86;1651356;86;25631;-87
2022/04/30 00:30:01;;;;;;;16.95;11.43;;;;;;;22.23;50.16;99431.26;1651251;85;26007;-87
2022/04/30 00:32:27;;;;;;;17.50;12.23;;;;;;;22.25;50.15;99425.30;1651537;85;25694;-87
2022/04/30 00:34:53;;;;;;;16.90;11.75;;;;;;;22.22;50.16;99422.65;1638489;87;27407;-87
2022/04/30 00:37:19;;;;;;;18.12;11.88;;;;;;;22.20;50.18;99423.63;1661694;84;25958;-87
2022/04/30 00:39:45;;;;;;;18.23;11.63;;;;;;;22.22;50.18;99426.05;1675025;84;25615;-86
2022/04/30 00:42:14;;;;;;;19.87;11.88;;;;;;;22.21;50.13;99422.44;1634896;86;26070;-87
2022/04/30 00:44:40;;;;;;;18.00;11.75;;;;;;;22.19;50.14;99426.19;1645609;87;25712;-87
2022/04/30 00:47:06;;;;;;;16.67;11.18;;;;;;;22.19;50.15;99422.81;1674955;84;28267;-87
2022/04/30 00:49:32;;;;;;;20.32;11.63;;;;;;;22.19;50.15;99421.42;1634780;86;25911;-87
2022/04/30 00:52:02;;;;;;;18.50;11.73;;;;;;;22.21;50.14;99424.42;1645479;87;25851;-87
2022/04/30 00:54:33;;;;;;;16.45;11.53;;;;;;;22.20;50.12;99423.63;1675191;84;32685;-87
2022/04/30 00:57:01;;;;;;;;;;;;;;;22.21;50.14;99421.63;1677017;85;25784;-87
2022/04/30 00:59:31;;;;;;;16.65;11.35;;;;;;;22.21;50.13;99423.02;1675059;85;28257;-87
2022/04/30 01:01:59;;;;;;;21.63;13.10;;;;;;;22.19;50.12;99416.41;1634726;86;25765;-87
2022/04/30 01:04:26;;;;;;;17.48;11.90;;;;;;;22.18;50.12;99416.20;1645227;85;25533;-87
2022/04/30 01:07:05;;;;;;;18.15;11.68;;;;;;;22.18;50.10;99417.03;1675102;85;26062;-87
2022/04/30 01:09:34;;;;;;;18.50;12.07;;;;;;;22.19;50.12;99416.41;1675364;85;25615;-86
2022/04/30 01:12:06;;;;;;;16.93;12.03;;;;;;;22.19;50.12;99422.81;1674988;85;27455;-87
2022/04/30 01:14:32;;;;;;;18.20;12.23;;;;;;;22.19;50.08;99422.00;1674537;85;25712;-87
2022/04/30 01:17:06;;;;;;;18.17;11.80;;;;;;;22.16;50.11;99421.34;1614307;87;25844;-87
2022/04/30 01:19:36;;;;;;;19.92;12.30;;;;;;;22.16;50.09;99419.95;1645296;87;26208;-87
2022/04/30 01:22:11;;;;;;;17.60;12.13;;;;;;;22.14;50.10;99420.94;1674540;85;25499;-87
2022/04/30 01:24:37;;;;;;;18.92;12.47;;;;;;;22.13;50.12;99418.73;1661895;86;27477;-86
2022/04/30 01:27:05;;;;;;;19.02;11.80;;;;;;;22.13;50.10;99411.75;1674913;85;25744;-87
2022/04/30 01:29:33;;;;;;;16.48;11.97;;;;;;;22.15;50.10;99411.38;1674918;85;25610;-87
2022/04/30 01:37:36;;;;;;;18.32;11.93;;;;;;;22.12;50.10;99410.73;1676508;85;25713;-87
2022/04/30 01:40:03;;;;;;;19.05;12.05;;;;;;;22.11;50.12;99416.92;1662073;85;25912;-87
2022/04/30 01:42:31;;;;;;;;;;;;;;;22.09;50.08;99415.08;1682350;85;25517;-87
2022/04/30 01:45:00;;;;;;;19.17;12.23;;;;;;;22.09;50.06;99410.08;1680093;84;25999;-87
2022/04/30 01:47:28;;;;;;;19.95;13.20;;;;;;;22.06;50.15;99406.06;1639879;87;25737;-87
2022/04/30 01:49:54;;;;;;;18.87;12.73;;;;;;;22.05;50.12;99399.66;1650459;86;28191;-87
2022/04/30 01:52:20;;;;;;;18.42;12.55;;;;;;;22.05;50.04;99398.27;1680004;84;25721;-87
2022/04/30 01:54:46;;;;;;;19.25;12.70;;;;;;;22.05;50.06;99395.47;1639795;87;25379;-87
2022/04/30 01:57:23;;;;;;;18.90;12.95;;;;;;;22.05;50.08;99404.45;1650398;86;26021;-87
2022/04/30 01:59:52;;;;;;;18.60;12.73;;;;;;;22.05;50.04;99396.09;1680446;83;25660;-86
2022/04/30 02:02:27;;;;;;;20.50;13.20;;;;;;;22.02;50.05;99389.25;1639585;87;27497;-87
2022/04/30 02:05:00;;;;;;;19.02;12.37;;;;;;;22.01;50.04;99389.04;1650203;86;25958;-87
2022/04/30 02:07:37;;;;;;;18.70;12.75;;;;;;;22.00;50.08;99388.84;1679013;84;25689;-87
2022/04/30 02:10:03;;;;;;;18.98;13.10;;;;;;;22.01;50.04;99389.63;1679753;85;26916;-87
2022/04/30 02:12:32;;;;;;;20.43;13.30;;;;;;;22.00;49.99;99386.05;1639717;87;25793;-87
2022/04/30 02:14:59;;;;;;;19.73;13.05;;;;;;;22.00;50.00;99387.44;1650002;86;27427;-87
2022/04/30 02:17:27;;;;;;;18.17;12.85;;;;;;;22.00;49.89;99380.46;1679972;85;25794;-87
2022/04/30 02:22:41;;;;;;;19.40;12.80;;;;;;;21.98;49.86;99377.81;1650024;87;25733;-87
2022/04/30 02:25:12;;;;;;;21.10;13.83;;;;;;;21.97;49.90;99374.23;1679907;85;25700;-87
2022/04/30 02:27:46;;;;;;;20.08;13.35;;;;;;;21.98;49.87;99368.05;1666618;86;28334;-87
2022/04/30 02:30:19;;;;;;;19.80;14.13;;;;;;;21.97;49.83;99371.44;1679935;85;25928;-87
2022/04/30 02:32:52;;;;;;;21.73;14.20;;;;;;;21.97;49.71;99370.05;1640014;87;25732;-87
2022/04/30 02:35:23;;;;;;;21.82;14.40;;;;;;;21.97;49.72;99370.63;1650249;86;26167;-87
2022/04/30 02:37:52;;;;;;;20.70;13.85;;;;;;;21.96;49.78;99364.84;1677779;85;25733;-87
2022/04/30 02:40:24;;;;;;;19.35;13.08;;;;;;;21.94;49.75;99366.00;1674476;85;27679;-87
2022/04/30 02:42:52;;;;;;;20.85;13.25;;;;;;;21.93;49.73;99360.22;1634438;87;25459;-87
2022/04/30 02:45:21;;;;;;;22.85;13.70;;;;;;;21.93;49.75;99364.40;1645205;85;25735;-87
2022/04/30 02:47:55;;;;;;;20.95;13.98;;;;;;;21.92;49.75;99359.19;1674800;85;26678;-87
2022/04/30 02:50:22;;;;;;;19.67;13.08;;;;;;;21.92;49.74;99359.19;1634664;87;25512;-87
2022/04/30 02:52:50;;;;;;;20.50;13.90;;;;;;;21.89;49.71;99359.94;1645309;85;28271;-87
2022/04/30 02:55:16;;;;;;;18.67;13.50;;;;;;;21.90;49.75;99344.80;1674440;84;25425;-86
2022/04/30 03:00:37;;;;;;;21.50;14.25;;;;;;;21.89;49.76;99345.41;1645033;87;26106;-87
2022/04/30 03:03:03;;;;;;;19.07;13.28;;;;;;;21.88;49.74;99343.78;1674508;85;25749;-86
2022/04/30 03:05:30;;;;;;;21.50;14.03;;;;;;;21.86;49.68;99337.78;1674818;85;28465;-87
2022/04/30 03:07:58;;;;;;;20.68;13.13;;;;;;;21.85;49.69;99338.98;1674429;85;25635;-86
2022/04/30 03:10:25;;;;;;;20.88;13.98;;;;;;;21.84;49.80;99335.95;1674507;85;25623;-87
2022/04/30 03:12:51;;;;;;;21.23;13.88;;;;;;;21.83;49.72;99332.95;1674985;85;26076;-87
2022/04/30 03:15:22;;;;;;;19.87;13.32;;;;;;;21.84;49.73;99337.34;1674954;84;25696;-86
2022/04/30 03:23:18;;;;;;;20.23;13.20;;;;;;;21.83;49.69;99332.95;1674652;85;25662;-86
2022/04/30 03:25:44;;;;;;;21.93;13.90;;;;;;;21.82;49.65;99335.53;1674795;85;26035;-86
2022/04/30 03:28:11;;;;;;;22.05;14.25;;;;;;;21.80;49.66;99328.12;1674537;84;25454;-86
2022/04/30 03:30:37;;;;;;;23.18;14.63;;;;;;;21.79;49.66;99332.09;1674777;84;27385;-87
2022/04/30 03:33:03;;;;;;;21.85;14.20;;;;;;;21.79;49.69;99344.05;1674918;85;25704;-87
2022/04/30 03:35:29;;;;;;;21.97;13.90;;;;;;;21.79;49.63;99332.88;1634824;87;25810;-86
2022/04/30 03:37:55;;;;;;;21.95;14.00;;;;;;;21.79;49.68;99335.67;1644892;87;26608;-87
2022/04/30 03:40:22;;;;;;;22.42;14.20;;;;;;;21.78;49.65;99338.84;1680030;84;25525;-86
2022/04/30 03:42:48;;;;;;;20.10;14.47;;;;;;;21.78;49.64;99335.47;1679760;85;28367;-87
2022/04/30 03:45:14;;;;;;;22.20;14.15;;;;;;;21.78;49.62;99328.49;1679646;85;25610;-86
2022/04/30 03:47:41;;;;;;;21.40;13.25;;;;;;;21.78;49.68;99332.68;1680071;84;25741;-86
2022/04/30 03:50:08;;;;;;;20.70;13.48;;;;;;;21.78;49.68;99337.44;1679570;85;26514;-86
2022/04/30 03:52:34;;;;;;;20.88;13.38;;;;;;;21.78;49.67;99333.26;1680060;85;25719;-87
2022/04/30 03:55:00;;;;;;;20.15;13.72;;;;;;;21.77;49.64;99335.84;1679935;85;27494;-87
2022/04/30 03:57:28;;;;;;;22.55;14.20;;;;;;;21.78;49.64;99327.68;1680032;84;25875;-86
2022/04/30 03:59:53;;;;;;;20.25;13.18;;;;;;;21.79;49.59;99332.09;1679435;85;25674;-87
2022/04/30 04:02:20;;;;;;;20.60;13.80;;;;;;;21.78;49.64;99329.89;1680019;85;26067;-86
2022/04/30 04:04:46;;;;;;;19.55;13.10;;;;;;;21.76;49.61;99340.61;1680125;84;25708;-87
2022/04/30 04:07:12;;;;;;;21.20;13.95;;;;;;;21.77;49.65;99338.63;1679739;85;27492;-86
2022/04/30 04:09:38;;;;;;;20.65;13.38;;;;;;;21.76;49.63;99338.42;1679882;85;25951;-86
2022/04/30 04:12:05;;;;;;;23.18;14.43;;;;;;;21.76;49.66;99326.66;1680042;85;25493;-87
2022/04/30 04:19:59;;;;;;;22.13;14.20;;;;;;;21.75;49.60;99343.16;1679720;85;25616;-87
2022/04/30 04:22:25;;;;;;;23.20;14.58;;;;;;;21.76;49.66;99342.00;1680133;85;25838;-86
2022/04/30 04:27:36;;;;;;;22.90;15.00;;;;;;;21.78;49.60;99337.44;1679691;85;26026;-87
2022/04/30 04:30:04;;;;;;;23.57;15.10;;;;;;;21.77;49.54;99340.02;1679948;85;25776;-87
2022/04/30 04:32:30;;;;;;;21.23;14.55;;;;;;;21.78;49.58;99343.02;1679888;84;28443;-86
2022/04/30 04:34:56;;;;;;;22.50;14.80;;;;;;;21.78;49.55;99351.39;1679924;84;26862;-87
2022/04/30 04:37:22;;;;;;;22.50;15.05;;;;;;;21.77;49.51;99345.02;1679955;85;25495;-87
2022/04/30 04:39:49;;;;;;;25.17;15.60;;;;;;;21.76;49.50;99344.79;1679648;85;26022;-87
2022/04/30 04:42:15;;;;;;;23.32;14.98;;;;;;;21.77;49.44;99342.81;1680186;84;25698;-86
2022/04/30 04:44:42;;;;;;;23.00;15.48;;;;;;;21.76;49.51;99339.21;1680069;84;28297;-87
2022/04/30 04:47:08;;;;;;;22.17;14.68;;;;;;;21.77;49.47;99336.66;1679954;84;25764;-87
2022/04/30 04:49:34;;;;;;;25.43;16.10;;;;;;;21.78;49.49;99338.84;1680213;84;25740;-87
2022/04/30 04:52:01;;;;;;;21.90;15.28;;;;;;;21.79;49.46;99343.26;1680174;84;25957;-87
2022/04/30 04:54:28;;;;;;;21.35;14.13;;;;;;;21.79;49.39;99344.66;1680149;85;25601;-87
2022/04/30 04:56:54;;;;;;;22.40;14.60;;;;;;;21.80;49.46;99341.48;1680120;84;27479;-86
2022/04/30 04:59:20;;;;;;;22.05;14.58;;;;;;;21.80;49.41;99342.88;1673180;84;25709;-87
2022/04/30 05:01:48;;;;;;;22.85;14.85;;;;;;;21.81;49.40;99345.06;1663821;85;25906;-87
2022/04/30 05:04:14;;;;;;;25.35;15.63;;;;;;;21.80;49.48;99351.25;1676995;85;26455;-86
2022/04/30 05:06:40;;;;;;;22.02;14.78;;;;;;;21.80;49.52;99351.25;1679805;85;25721;-86
2022/04/30 05:09:06;;;;;;;22.62;15.10;;;;;;;21.82;49.54;99350.88;1680144;85;27404;-87
2022/04/30 05:11:32;;;;;;;24.50;15.13;;;;;;;21.81;49.46;99351.45;1680122;85;25622;-86
2022/04/30 05:13:58;;;;;;;22.52;14.68;;;;;;;21.82;49.50;99355.06;1679971;84;25808;-86
2022/04/30 05:16:24;;;;;;;22.73;15.23;;;;;;;21.83;49.44;99352.48;1680096;85;26186;-86
2022/04/30 05:18:50;;;;;;;24.85;15.32;;;;;;;21.83;49.46;99358.64;1680208;84;25673;-86
2022/04/30 05:21:16;;;;;;;24.35;15.85;;;;;;;21.81;49.39;99357.04;1680195;85;27372;-86
2022/04/30 05:23:42;;;;;;;23.18;15.08;;;;;;;21.81;49.45;99357.62;1676930;84;26005;-86
2022/04/30 05:26:08;;;;;;;23.87;15.58;;;;;;;21.82;49.47;99356.46;1680390;84;25575;-86
2022/04/30 05:28:34;;;;;;;24.23;15.70;;;;;;;21.81;49.51;99355.64;1680039;85;25997;-86
2022/04/30 05:31:01;;;;;;;24.02;15.05;;;;;;;21.79;49.45;99352.41;1679889;85;25661;-86
2022/04/30 05:33:26;;;;;;;25.95;15.50;;;;;;;21.80;49.54;99357.41;1680025;84;28289;-86
2022/04/30 05:35:53;;;;;;;25.52;16.30;;;;;;;21.82;49.73;99356.46;1679901;84;25959;-85
2022/04/30 05:38:21;;;;;;;24.47;16.05;;;;;;;21.99;49.47;99354.33;1679661;84;25516;-89
2022/04/30 05:41:08;;;;;;;26.30;15.93;;;;;;;22.24;49.20;99355.28;1680016;84;26237;-88
2022/04/30 05:43:36;;;;;;;29.55;15.20;;;;;;;22.54;49.15;99358.70;1680064;84;25224;-89
2022/04/30 05:46:02;;;;;;;25.32;15.35;;;;;;;22.91;48.72;99366.98;1679726;84;28918;-88
2022/04/30 05:48:29;;;;;;;26.25;15.98;;;;;;;23.22;48.36;99363.52;1680056;84;25658;-89
2022/04/30 05:50:56;;;;;;;24.35;15.38;;;;;;;23.51;47.84;99368.03;1679673;85;25695;-89
2022/04/30 05:53:22;;;;;;;27.17;15.08;;;;;;;23.83;47.45;99364.52;1680032;84;26030;-89
2022/04/30 05:55:49;;;;;;;25.17;14.87;;;;;;;24.07;47.12;99367.30;1680026;84;25424;-89
2022/04/30 05:58:15;;;;;;;26.33;16.02;;;;;;;24.31;46.60;99362.28;1679702;85;28326;-89
2022/04/30 06:00:42;;;;;;;25.97;15.43;;;;;;;24.55;46.23;99360.81;1679792;84;25732;-88
2022/04/30 06:03:08;;;;;;;26.10;15.32;;;;;;;24.73;45.89;99357.90;1679989;84;25467;-88
2022/04/30 06:05:37;;;;;;;24.60;15.60;;;;;;;24.89;45.63;99355.59;1680065;84;25731;-89
2022/04/30 06:08:04;;;;;;;25.20;15.50;;;;;;;24.98;45.28;99358.02;1639606;86;25577;-89
2022/04/30 06:10:31;;;;;;;24.12;15.23;;;;;;;25.07;45.04;99357.63;1650514;86;27461;-90
2022/04/30 06:12:57;;;;;;;26.42;15.53;;;;;;;25.11;44.78;99359.06;1680089;85;25665;-89
2022/04/30 06:15:24;;;;;;;23.62;15.63;;;;;;;25.06;44.74;99367.25;1640132;87;25750;-89
2022/04/30 06:17:50;;;;;;;24.47;15.93;;;;;;;24.99;44.76;99361.63;1648161;85;26674;-89
2022/04/30 06:20:17;;;;;;;27.52;15.50;;;;;;;24.89;44.82;99356.99;1679971;84;25421;-90
2022/04/30 06:22:44;;;;;;;23.85;15.93;;;;;;;24.78;44.76;99353.33;1639935;87;27336;-89
2022/04/30 06:25:11;;;;;;;25.25;15.72;;;;;;;24.72;44.81;99354.91;1650169;87;25926;-90
2022/04/30 06:27:38;;;;;;;22.98;14.85;;;;;;;24.61;44.91;99354.84;1679909;84;25503;-90
2022/04/30 06:30:07;;;;;;;24.80;15.68;;;;;;;24.52;45.00;99359.41;1639996;87;26684;-89
2022/04/30 06:32:34;;;;;;;23.67;15.60;;;;;;;24.44;45.07;99352.35;1650396;86;25485;-90
2022/04/30 06:35:02;;;;;;;25.72;14.95;;;;;;;24.33;45.21;99350.69;1680219;84;28077;-90
2022/04/30 06:37:29;;;;;;;23.20;14.93;;;;;;;24.24;45.44;99356.64;1679834;84;25979;-89
2022/04/30 06:39:55;;;;;;;22.50;14.70;;;;;;;24.17;45.65;99362.41;1636131;86;25769;-89
2022/04/30 06:42:21;;;;;;;23.00;14.78;;;;;;;24.12;45.83;99359.14;1645535;87;26008;-90
2022/04/30 06:44:48;;;;;;;23.12;15.05;;;;;;;24.04;45.90;99354.09;1675121;84;25449;-90
2022/04/30 06:47:15;;;;;;;25.08;15.25;;;;;;;23.98;46.01;99350.85;1635009;87;27390;-89
2022/04/30 06:49:41;;;;;;;22.32;14.78;;;;;;;23.94;46.08;99355.02;1645406;86;25683;-89
2022/04/30 06:52:08;;;;;;;24.07;14.28;;;;;;;23.89;46.13;99359.56;1675059;84;25602;-90
2022/04/30 06:57:17;;;;;;;26.90;15.08;;;;;;;23.76;46.58;99355.46;1663272;84;25509;-89
2022/04/30 06:59:41;;;;;;;25.65;14.25;;;;;;;23.70;46.73;99356.42;1674517;85;26175;-89
2022/04/30 07:02:17;;;;;;;22.95;14.45;;;;;;;23.64;46.87;99357.38;1674996;84;25846;-89
2022/04/30 07:04:42;;;;;;;23.87;14.30;;;;;;;23.61;47.07;99355.35;1675068;84;25805;-89
2022/04/30 07:07:10;;;;;;;22.75;13.93;;;;;;;23.53;47.19;99357.28;1675319;85;26008;-89
2022/04/30 07:09:37;;;;;;;24.85;14.63;;;;;;;23.47;47.39;99344.83;1675040;85;25736;-89
2022/04/30 07:12:09;;;;;;;25.27;14.65;;;;;;;23.44;47.40;99347.00;1674696;85;28354;-89
2022/04/30 07:14:40;;;;;;;23.40;14.20;;;;;;;23.41;47.43;99341.59;1673591;85;25863;-89
2022/04/30 07:17:09;;;;;;;23.45;14.15;;;;;;;23.36;47.47;99353.08;1673272;84;25745;-89
2022/04/30 07:19:35;;;;;;;22.67;14.47;;;;;;;23.33;47.46;99346.05;1675275;84;26696;-89
2022/04/30 07:22:03;;;;;;;21.05;14.10;;;;;;;23.30;47.52;99349.84;1675229;85;25487;-89
2022/04/30 07:24:33;;;;;;;23.07;14.58;;;;;;;23.29;47.54;99354.42;1674679;85;27428;-88
2022/04/30 07:27:01;;;;;;;21.07;13.90;;;;;;;23.25;47.54;99345.16;1674835;85;25741;-88
2022/04/30 07:29:27;;;;;;;22.05;13.95;;;;;;;23.23;47.58;99348.34;1674982;84;25499;-88
2022/04/30 07:31:54;;;;;;;19.82;13.10;;;;;;;23.20;47.60;99354.70;1674983;85;26606;-88
2022/04/30 07:34:20;;;;;;;21.05;14.05;;;;;;;23.17;47.66;99353.48;1674968;84;25798;-89
2022/04/30 07:36:47;;;;;;;23.18;13.48;;;;;;;23.15;47.68;99348.08;1675035;85;27370;-90
2022/04/30 07:39:13;;;;;;;21.62;13.68;;;;;;;23.10;47.75;99349.22;1674806;84;25672;-89
2022/04/30 07:41:39;;;;;;;19.80;13.22;;;;;;;23.10;47.77;99342.23;1634914;87;25752;-89
2022/04/30 07:44:06;;;;;;;19.45;13.13;;;;;;;23.09;47.80;99342.62;1645282;86;25935;-89
2022/04/30 07:46:33;;;;;;;19.42;12.78;;;;;;;23.06;47.87;99340.78;1675110;85;25443;-89
2022/04/30 07:49:00;;;;;;;20.97;13.58;;;;;;;23.05;47.92;99336.97;1634872;86;27475;-90
2022/04/30 07:51:42;;;;;;;20.12;13.38;;;;;;;23.03;47.95;99338.75;1645119;85;25681;-89
2022/04/30 07:54:05;;;;;;;18.73;12.35;;;;;;;23.01;47.98;99337.53;1675796;84;25865;-89
2022/04/30 07:56:32;;;;;;;19.52;12.98;;;;;;;23.00;48.06;99332.53;1634586;86;26118;-88
2022/04/30 07:58:58;;;;;;;19.37;12.60;;;;;;;22.98;48.14;99330.73;1645510;85;25758;-89
2022/04/30 08:01:25;;;;;;;19.77;12.78;;;;;;;22.98;48.17;99336.91;1675051;84;27426;-89
2022/04/30 08:03:51;;;;;;;18.35;12.23;;;;;;;22.96;48.17;99328.90;1634902;86;25461;-88
2022/04/30 08:06:18;;;;;;;18.87;12.47;;;;;;;22.96;48.14;99332.28;1645518;87;25630;-89
2022/04/30 08:08:44;;;;;;;21.85;12.28;;;;;;;22.96;48.20;99338.68;1674988;85;26114;-89
2022/04/30 08:11:12;;;;;;;19.10;12.23;;;;;;;22.94;48.16;99336.27;1632058;86;25762;-89
2022/04/30 08:13:39;;;;;;;19.15;12.50;;;;;;;22.93;48.27;99335.25;1645394;87;25973;-89
2022/04/30 08:16:09;;;;;;;17.95;11.97;;;;;;;22.92;48.21;99333.65;1675130;85;25654;-90
2022/04/30 08:18:33;;;;;;;19.87;12.45;;;;;;;22.92;48.21;99337.84;1634467;87;25634;-89
2022/04/30 08:21:00;;;;;;;18.98;12.07;;;;;;;22.91;48.27;99341.84;1645438;85;26042;-89
2022/04/30 08:23:26;;;;;;;20.30;11.83;;;;;;;22.91;48.28;99341.84;1675243;85;25615;-90
2022/04/30 08:25:53;;;;;;;17.85;11.90;;;;;;;22.88;48.38;99337.79;1635136;87;27333;-89
2022/04/30 08:28:19;;;;;;;17.15;11.85;;;;;;;22.89;48.36;99336.63;1645534;86;25774;-89
2022/04/30 08:30:45;;;;;;;18.20;11.83;;;;;;;22.88;48.45;99326.61;1675264;84;25714;-89
2022/04/30 08:33:12;;;;;;;17.05;11.40;;;;;;;22.89;48.47;99326.84;1635112;87;25996;-89
2022/04/30 08:35:38;;;;;;;18.20;11.15;;;;;;;22.89;48.57;99324.63;1645656;86;25534;-90
2022/04/30 08:38:05;;;;;;;18.02;11.78;;;;;;;22.87;48.73;99323.62;1675240;85;27760;-89
2022/04/30 08:40:33;;;;;;;17.98;11.48;;;;;;;22.88;48.78;99321.64;1627784;86;25923;-90
2022/04/30 08:43:12;;;;;;;17.67;10.98;;;;;;;22.88;48.70;99325.22;1638803;86;25727;-89
2022/04/30 08:45:41;;;;;;;15.48;10.78;;;;;;;22.87;48.74;99319.42;1652494;85;26959;-89
2022/04/30 08:48:11;;;;;;;17.92;11.68;;;;;;;22.86;48.80;99326.20;1652671;86;25245;-88
2022/04/30 08:50:40;;;;;;;15.40;11.28;;;;;;;22.85;48.79;99317.59;1639873;87;27486;-88
2022/04/30 08:53:07;;;;;;;16.27;11.43;;;;;;;22.86;48.68;99315.03;1652508;86;25741;-90
2022/04/30 08:55:34;;;;;;;17.12;10.40;;;;;;;22.89;48.67;99323.23;1638731;87;25442;-88
2022/04/30 08:58:02;;;;;;;17.50;10.58;;;;;;;22.87;48.59;99319.42;1651763;85;26005;-89
2022/04/30 09:00:29;;;;;;;18.42;10.40;;;;;;;22.85;48.53;99321.00;1651664;86;25752;-89
2022/04/30 09:02:58;;;;;;;15.20;9.85;;;;;;;22.83;48.46;99311.60;1638823;87;27437;-89
2022/04/30 09:05:36;;;;;;;14.50;9.23;;;;;;;22.85;48.16;99309.83;1650594;85;25467;-89
2022/04/30 09:08:08;;;;;;;13.48;8.78;;;;;;;22.85;47.90;99316.81;1637771;87;25704;-89
2022/04/30 09:10:37;;;;;;;16.37;9.13;;;;;;;22.80;46.47;99308.17;1651838;86;26160;-88
2022/04/30 09:13:10;;;;;;;14.30;9.38;;;;;;;22.76;46.16;99314.29;1651667;86;25805;-88
2022/04/30 09:15:39;;;;;;;11.73;8.65;;;;;;;22.72;46.28;99306.47;1638750;87;28233;-88
2022/04/30 09:18:08;;;;;;;12.18;7.83;;;;;;;22.71;45.15;99307.66;1651657;85;25689;-88
2022/04/30 09:20:54;;;;;;;12.47;8.23;;;;;;;22.66;44.76;99300.42;1638838;86;25758;-89
2022/04/30 09:23:27;;;;;;;13.98;8.28;;;;;;;22.62;44.28;99297.58;1651747;86;26257;-89
2022/04/30 09:25:56;;;;;;;13.85;7.55;;;;;;;22.56;44.46;99290.10;1638729;86;25746;-89
2022/04/30 09:28:28;;;;;;;14.83;8.10;;;;;;;22.53;44.09;99289.47;1651966;85;27471;-89
2022/04/30 09:31:18;;;;;;;12.68;7.22;;;;;;;22.45;43.69;99280.77;1638673;87;25855;-89
2022/04/30 09:33:51;;;;;;;;;;;;;;;22.53;44.14;99291.45;1654023;86;25681;-88
2022/04/30 09:39:18;;;;;;;10.95;7.78;;;;;;;22.52;44.27;99289.84;1651532;86;25663;-88
2022/04/30 09:41:46;;;;;;;13.48;8.48;;;;;;;22.50;44.06;99291.63;1632015;86;28289;-88
2022/04/30 09:44:16;;;;;;;10.82;7.20;;;;;;;22.49;44.24;99284.44;1650933;85;25695;-88
2022/04/30 09:46:42;;;;;;;;;;;;;;;22.49;43.84;99284.44;1653567;86;25691;-88
2022/04/30 09:54:42;;;;;;;12.58;7.22;;;;;;;22.51;44.17;99278.47;1650980;86;25616;-88
2022/04/30 09:57:09;;;;;;;11.95;7.30;;;;;;;22.52;44.57;99282.86;1651229;86;25610;-88
2022/04/30 09:59:41;;;;;;;10.70;7.42;;;;;;;22.49;44.15;99272.45;1651338;86;25644;-89
2022/04/30 10:02:09;;;;;;;10.30;7.00;;;;;;;22.49;44.23;99273.84;1648214;85;26001;-88
2022/04/30 10:04:37;;;;;;;11.53;6.92;;;;;;;22.47;44.36;99268.64;1651325;86;25485;-88
2022/04/30 10:07:06;;;;;;;12.07;7.42;;;;;;;22.47;44.61;99265.03;1651293;86;27436;-88
2022/04/30 10:09:53;;;;;;;11.63;7.10;;;;;;;22.48;44.79;99270.24;1650846;85;25709;-88
2022/04/30 10:12:36;;;;;;;10.68;7.00;;;;;;;22.46;44.65;99262.86;1650359;86;25490;-88
2022/04/30 10:15:28;;;;;;;10.63;6.20;;;;;;;22.42;44.53;99265.59;1638359;87;26114;-88
2022/04/30 10:17:57;;;;;;;9.80;6.70;;;;;;;22.43;44.34;99266.41;1651216;86;25656;-88
2022/04/30 10:20:34;;;;;;;10.08;6.30;;;;;;;22.42;44.09;99261.41;1619038;87;27559;-88
2022/04/30 10:23:00;;;;;;;9.90;6.70;;;;;;;22.42;44.33;99257.22;1651210;85;25882;-88
2022/04/30 10:25:36;;;;;;;11.65;6.78;;;;;;;22.41;44.69;99254.22;1638488;86;25471;-88
2022/04/30 10:28:19;;;;;;;9.35;6.72;;;;;;;22.42;44.89;99252.21;1651286;86;26772;-87
2022/04/30 10:31:01;;;;;;;11.12;6.70;;;;;;;22.41;45.04;99249.22;1651484;86;25755;-88
2022/04/30 10:33:28;;;;;;;9.50;6.37;;;;;;;22.40;45.17;99247.01;1638252;87;27393;-88
2022/04/30 10:36:10;;;;;;;10.58;7.10;;;;;;;22.39;45.30;99245.41;1651163;85;25696;-88
2022/04/30 10:38:38;;;;;;;9.58;6.42;;;;;;;22.37;45.42;99242.80;1638374;87;25478;-88
2022/04/30 10:41:11;;;;;;;10.63;6.92;;;;;;;22.38;45.56;99241.60;1650893;85;26116;-88
2022/04/30 10:43:40;;;;;;;10.45;6.95;;;;;;;22.37;45.65;99240.00;1650993;86;25478;-88
2022/04/30 10:46:23;;;;;;;8.67;6.73;;;;;;;22.37;45.73;99233.02;1638459;87;27529;-88
2022/04/30 10:48:50;;;;;;;8.65;6.22;;;;;;;22.37;45.85;99238.61;1650897;86;25931;-88
2022/04/30 10:51:31;;;;;;;9.88;6.50;;;;;;;22.36;45.96;99235.00;1638410;87;25666;-88
2022/04/30 10:53:59;;;;;;;;;;;;;;;22.35;46.05;99229.80;1649421;86;26679;-89
2022/04/30 10:56:28;;;;;;;9.33;6.45;;;;;;;22.33;46.16;99234.36;1651268;86;25484;-89
2022/04/30 10:58:54;;;;;;;11.12;6.33;;;;;;;22.31;46.22;99228.38;1638533;86;28093;-89
2022/04/30 11:01:21;;;;;;;9.53;6.10;;;;;;;22.31;46.32;99222.18;1651192;85;25707;-89
2022/04/30 11:03:49;;;;;;;9.30;6.33;;;;;;;22.31;46.40;99226.37;1638439;86;25830;-89
2022/04/30 11:06:26;;;;;;;9.03;6.00;;;;;;;22.30;46.49;99220.58;1651265;86;26025;-89
2022/04/30 11:09:05;;;;;;;9.43;6.50;;;;;;;22.31;46.55;99222.18;1651040;86;25672;-89
2022/04/30 11:11:33;;;;;;;10.58;6.60;;;;;;;22.30;46.60;99215.58;1651296;86;27403;-89
2022/04/30 11:14:03;;;;;;;9.78;6.25;;;;;;;22.30;46.70;99215.58;1638383;87;25503;-89
2022/04/30 11:16:35;;;;;;;8.95;6.03;;;;;;;22.29;46.78;99211.19;1651433;86;25435;-89
2022/04/30 11:19:11;;;;;;;9.03;6.03;;;;;;;22.29;46.85;99211.19;1650699;86;26018;-89
2022/04/30 11:21:40;;;;;;;7.37;5.65;;;;;;;22.29;46.89;99209.21;1651006;86;25705;-89
2022/04/30 11:24:10;;;;;;;9.55;5.60;;;;;;;22.29;46.97;99198.63;1638558;86;27407;-88
2022/04/30 11:27:03;;;;;;;10.10;6.12;;;;;;;22.29;47.01;99205.02;1651144;86;25740;-89
2022/04/30 11:29:31;;;;;;;10.72;6.03;;;;;;;22.29;47.06;99202.81;1644014;86;25492;-88
2022/04/30 11:31:59;;;;;;;12.55;6.28;;;;;;;22.28;46.99;99202.00;1638312;87;26979;-89
2022/04/30 11:34:26;;;;;;;11.95;6.58;;;;;;;22.28;46.61;99203.40;1650938;85;25608;-89
2022/04/30 11:36:56;;;;;;;9.60;6.10;;;;;;;22.29;46.37;99200.02;1638643;86;27564;-89
2022/04/30 11:39:23;;;;;;;12.10;6.15;;;;;;;22.29;46.57;99200.84;1650812;86;25748;-89
2022/04/30 11:41:53;;;;;;;11.57;6.15;;;;;;;22.30;46.66;99198.83;1643598;86;25666;-90
2022/04/30 11:44:23;;;;;;;9.03;5.75;;;;;;;22.29;46.67;99193.86;1675109;85;26008;-89
2022/04/30 11:46:51;;;;;;;10.00;5.90;;;;;;;22.31;46.65;99195.66;1634890;86;25455;-89
2022/04/30 11:49:23;;;;;;;8.65;5.17;;;;;;;22.29;46.62;99188.86;1644975;86;27448;-90
2022/04/30 11:51:54;;;;;;;7.40;5.35;;;;;;;22.27;46.15;99189.82;1674922;85;25721;-89
2022/04/30 11:54:24;;;;;;;9.23;5.90;;;;;;;22.25;45.93;99191.59;1634915;87;25721;-88
2022/04/30 11:57:22;;;;;;;9.00;5.28;;;;;;;22.30;45.93;99180.69;1635013;87;26000;-89
2022/04/30 11:59:49;;;;;;;9.08;5.20;;;;;;;22.53;45.71;99181.95;1645241;85;25473;-90
2022/04/30 12:02:16;;;;;;;8.43;5.10;;;;;;;22.91;44.91;99181.16;1675330;84;28091;-89
2022/04/30 12:04:43;;;;;;;6.62;5.20;;;;;;;23.19;44.01;99175.58;1634774;86;25681;-90